createdAt,value
2022-11-05T00:00:49.161Z,6.53
2022-11-05T00:03:36.572Z,6.45
2022-11-05T00:06:25.125Z,6.49
2022-11-05T00:09:11.018Z,6.42
2022-11-05T00:11:56.901Z,6.47
2022-11-05T00:14:42.861Z,6.46
2022-11-05T00:17:12.055Z,6.46
2022-11-05T00:19:42.119Z,6.41
2022-11-05T00:22:28.070Z,6.40
2022-11-05T00:25:14.210Z,6.41
2022-11-05T00:27:43.070Z,6.40
2022-11-05T00:30:12.600Z,6.40
2022-11-05T00:32:41.295Z,6.35
2022-11-05T00:35:11.982Z,6.39
2022-11-05T00:37:43.234Z,6.38
2022-11-05T00:40:16.164Z,6.40
2022-11-05T00:43:03.262Z,6.39
2022-11-05T00:45:33.714Z,6.45
2022-11-05T00:48:19.588Z,6.45
2022-11-05T00:50:51.337Z,6.53
2022-11-05T00:53:20.363Z,6.67
2022-11-05T00:55:49.053Z,6.66
2022-11-05T00:58:20.551Z,6.54
2022-11-05T01:00:51.992Z,6.50
2022-11-05T01:03:22.336Z,6.54
2022-11-05T01:05:54.722Z,6.49
2022-11-05T01:08:25.236Z,6.43
2022-11-05T01:10:56.206Z,6.46
2022-11-05T01:13:27.158Z,6.46
2022-11-05T01:15:56.741Z,6.55
2022-11-05T01:18:25.967Z,6.59
2022-11-05T01:20:56.300Z,6.62
2022-11-05T01:23:25.916Z,6.69
2022-11-05T01:25:54.489Z,6.57
2022-11-05T01:28:23.089Z,6.69
2022-11-05T01:30:57.367Z,6.75
2022-11-05T01:33:27.622Z,6.72
2022-11-05T01:35:58.677Z,6.79
2022-11-05T01:38:27.418Z,6.86
2022-11-05T01:40:56.222Z,6.72
2022-11-05T01:43:26.862Z,6.78
2022-11-05T01:45:59.388Z,6.75
2022-11-05T01:48:34.292Z,6.88
2022-11-05T01:51:08.713Z,6.87
2022-11-05T01:53:42.479Z,6.78
2022-11-05T01:56:14.384Z,6.77
2022-11-05T01:58:50.359Z,6.80
2022-11-05T02:01:19.812Z,6.68
2022-11-05T02:03:51.922Z,6.81
2022-11-05T02:06:23.044Z,6.80
2022-11-05T02:08:58.854Z,6.82
2022-11-05T02:11:28.609Z,6.84
2022-11-05T02:13:57.599Z,6.98
2022-11-05T02:16:37.230Z,6.94
2022-11-05T02:19:25.078Z,6.97
2022-11-05T02:22:25.015Z,6.96
2022-11-05T02:25:19.436Z,6.99
2022-11-05T02:28:18.767Z,7.01
2022-11-05T02:30:56.630Z,6.95
2022-11-05T02:33:40.264Z,6.94
2022-11-05T02:36:21.791Z,6.96
2022-11-05T02:39:00.365Z,7.00
2022-11-05T02:41:37.464Z,6.97
2022-11-05T02:44:17.397Z,7.03
2022-11-05T02:46:56.726Z,6.92
2022-11-05T02:49:42.803Z,6.96
2022-11-05T02:52:17.853Z,6.94
2022-11-05T02:54:53.307Z,6.99
2022-11-05T02:57:24.686Z,7.02
2022-11-05T03:00:02.637Z,6.98
2022-11-05T03:02:34.220Z,6.95
2022-11-05T03:05:04.323Z,6.92
2022-11-05T03:07:43.377Z,6.87
2022-11-05T03:10:26.916Z,6.85
2022-11-05T03:13:07.773Z,7.00
2022-11-05T03:15:49.577Z,6.92
2022-11-05T03:18:28.032Z,6.87
2022-11-05T03:21:04.628Z,6.85
2022-11-05T03:23:39.450Z,6.92
2022-11-05T03:26:13.764Z,6.86
2022-11-05T03:28:47.312Z,6.87
2022-11-05T03:31:17.995Z,6.91
2022-11-05T03:33:49.823Z,6.93
2022-11-05T03:36:23.312Z,6.90
2022-11-05T03:38:56.727Z,6.93
2022-11-05T03:41:26.810Z,6.87
2022-11-05T03:44:00.086Z,6.73
2022-11-05T03:46:32.311Z,6.85
2022-11-05T03:49:06.167Z,6.89
2022-11-05T03:51:44.328Z,6.97
2022-11-05T03:54:13.618Z,7.00
2022-11-05T03:56:50.666Z,6.94
2022-11-05T03:59:20.083Z,6.95
2022-11-05T04:01:51.215Z,6.87
2022-11-05T04:04:22.129Z,6.88
2022-11-05T04:07:07.948Z,6.86
2022-11-05T04:09:59.628Z,6.85
2022-11-05T04:12:45.791Z,6.83
2022-11-05T04:15:14.439Z,6.86
2022-11-05T04:17:42.810Z,6.83
2022-11-05T04:20:29.824Z,6.88
2022-11-05T04:23:20.911Z,6.83
2022-11-05T04:25:49.313Z,6.82
2022-11-05T04:28:18.273Z,6.88
2022-11-05T04:30:45.612Z,6.79
2022-11-05T04:33:16.808Z,6.73
2022-11-05T04:35:49.285Z,6.77
2022-11-05T04:38:20.003Z,6.82
2022-11-05T04:40:49.403Z,6.83
2022-11-05T04:43:20.247Z,6.91
2022-11-05T04:45:49.401Z,6.92
2022-11-05T04:48:17.778Z,6.90
2022-11-05T04:50:47.680Z,6.90
2022-11-05T04:53:16.494Z,7.00
2022-11-05T04:55:44.766Z,7.00
2022-11-05T04:58:13.130Z,7.01
2022-11-05T05:00:41.433Z,7.04
2022-11-05T05:03:10.306Z,7.04
2022-11-05T05:05:39.176Z,7.08
2022-11-05T05:08:09.018Z,7.03
2022-11-05T05:10:37.427Z,7.07
2022-11-05T05:13:05.787Z,7.04
2022-11-05T05:15:34.275Z,7.12
2022-11-05T05:18:02.855Z,7.10
2022-11-05T05:21:00.167Z,7.22
2022-11-05T05:23:30.115Z,7.04
2022-11-05T05:26:01.246Z,7.14
2022-11-05T05:28:29.831Z,7.06
2022-11-05T05:31:00.402Z,7.05
2022-11-05T05:33:29.901Z,7.09
2022-11-05T05:35:59.974Z,7.11
2022-11-05T05:38:30.137Z,7.18
2022-11-05T05:41:00.998Z,7.13
2022-11-05T05:43:31.638Z,7.19
2022-11-05T05:46:04.200Z,7.06
2022-11-05T05:48:32.883Z,7.14
2022-11-05T05:51:03.031Z,7.20
2022-11-05T05:53:34.137Z,7.17
2022-11-05T05:56:03.291Z,7.16
2022-11-05T05:58:35.658Z,7.13
2022-11-05T06:01:05.260Z,7.20
2022-11-05T06:03:33.905Z,7.19
2022-11-05T06:06:03.457Z,7.20
2022-11-05T06:08:33.313Z,7.23
2022-11-05T06:11:02.492Z,7.22
2022-11-05T06:13:32.095Z,7.37
2022-11-05T06:16:03.275Z,7.29
2022-11-05T06:18:32.022Z,7.31
2022-11-05T06:21:03.522Z,7.25
2022-11-05T06:23:34.172Z,7.41
2022-11-05T06:26:04.642Z,7.35
2022-11-05T06:28:35.245Z,7.39
2022-11-05T06:31:03.957Z,7.31
2022-11-05T06:33:32.522Z,7.38
2022-11-05T06:36:02.029Z,7.37
2022-11-05T06:38:32.970Z,7.33
2022-11-05T06:41:09.885Z,7.27
2022-11-05T06:43:39.261Z,7.43
2022-11-05T06:46:07.946Z,7.29
2022-11-05T06:48:36.870Z,7.30
2022-11-05T06:51:06.241Z,7.35
2022-11-05T06:53:34.971Z,7.28
2022-11-05T06:56:06.616Z,7.37
2022-11-05T06:58:35.922Z,7.38
2022-11-05T07:01:06.114Z,7.34
2022-11-05T07:03:34.649Z,7.21
2022-11-05T07:06:04.838Z,7.22
2022-11-05T07:08:33.971Z,7.27
2022-11-05T07:11:02.845Z,7.22
2022-11-05T07:13:34.827Z,7.19
2022-11-05T07:16:03.305Z,7.14
2022-11-05T07:18:31.686Z,7.14
2022-11-05T07:21:01.096Z,7.10
2022-11-05T07:23:29.578Z,7.08
2022-11-05T07:25:57.937Z,7.11
2022-11-05T07:28:26.738Z,7.10
2022-11-05T07:30:56.877Z,7.08
2022-11-05T07:33:25.834Z,7.02
2022-11-05T07:35:54.730Z,7.10
2022-11-05T07:38:23.218Z,7.07
2022-11-05T07:40:52.125Z,7.07
2022-11-05T07:43:20.520Z,7.13
2022-11-05T07:45:49.142Z,7.20
2022-11-05T07:48:20.081Z,7.24
2022-11-05T07:50:52.414Z,7.39
2022-11-05T07:53:21.500Z,7.39
2022-11-05T07:55:49.813Z,7.68
2022-11-05T07:58:18.718Z,7.65
2022-11-05T08:00:47.261Z,7.77
2022-11-05T08:03:18.361Z,7.96
2022-11-05T08:05:50.150Z,8.00
2022-11-05T08:08:20.959Z,7.97
2022-11-05T08:10:50.129Z,7.95
2022-11-05T08:13:19.954Z,8.01
2022-11-05T08:15:48.554Z,8.02
2022-11-05T08:18:18.785Z,8.03
2022-11-05T08:20:49.912Z,8.08
2022-11-05T08:23:18.520Z,8.13
2022-11-05T08:25:46.984Z,8.15
2022-11-05T08:28:15.706Z,8.30
2022-11-05T08:30:44.589Z,8.27
2022-11-05T08:33:16.254Z,8.28
2022-11-05T08:35:46.149Z,8.27
2022-11-05T08:38:17.643Z,8.39
2022-11-05T08:40:48.736Z,8.44
2022-11-05T08:43:17.747Z,8.38
2022-11-05T08:45:48.125Z,8.31
2022-11-05T08:48:19.345Z,8.25
2022-11-05T08:50:49.575Z,8.42
2022-11-05T08:53:19.695Z,8.39
2022-11-05T08:55:50.179Z,8.44
2022-11-05T08:58:20.594Z,8.45
2022-11-05T09:00:50.925Z,8.23
2022-11-05T09:03:20.536Z,8.38
2022-11-05T09:05:49.046Z,8.38
2022-11-05T09:08:20.610Z,8.33
2022-11-05T09:10:50.691Z,8.27
2022-11-05T09:13:20.465Z,8.21
2022-11-05T09:15:49.817Z,8.25
2022-11-05T09:18:19.519Z,8.30
2022-11-05T09:20:48.910Z,8.46
2022-11-05T09:23:19.328Z,8.49
2022-11-05T09:25:48.642Z,8.44
2022-11-05T09:28:18.940Z,8.60
2022-11-05T09:30:48.990Z,8.72
2022-11-05T09:33:18.793Z,8.69
2022-11-05T09:35:48.250Z,8.75
2022-11-05T09:38:17.748Z,8.42
2022-11-05T09:40:56.298Z,8.25
2022-11-05T09:43:31.664Z,8.07
2022-11-05T09:46:04.838Z,8.06
2022-11-05T09:48:36.452Z,7.91
2022-11-05T09:51:07.478Z,7.95
2022-11-05T09:53:41.221Z,7.98
2022-11-05T09:56:23.162Z,8.01
2022-11-05T09:59:00.091Z,8.06
2022-11-05T10:01:32.705Z,8.03
2022-11-05T10:04:04.358Z,8.15
2022-11-05T10:06:33.444Z,8.10
2022-11-05T10:09:07.377Z,8.37
2022-11-05T10:11:45.901Z,8.17
2022-11-05T10:14:21.641Z,8.35
2022-11-05T10:16:55.876Z,8.54
2022-11-05T10:19:27.432Z,8.70
2022-11-05T10:22:07.180Z,8.67
2022-11-05T10:24:36.461Z,8.79
2022-11-05T10:27:07.739Z,8.83
2022-11-05T10:29:37.408Z,9.00
2022-11-05T10:32:08.071Z,9.16
2022-11-05T10:34:40.142Z,9.22
2022-11-05T10:37:09.238Z,9.18
2022-11-05T10:39:38.152Z,9.47
2022-11-05T10:42:29.356Z,9.51
2022-11-05T10:45:07.123Z,9.52
2022-11-05T10:48:03.057Z,9.16
2022-11-05T10:50:32.673Z,9.08
2022-11-05T10:53:04.114Z,9.12
2022-11-05T10:55:35.954Z,9.24
2022-11-05T10:58:30.588Z,8.88
2022-11-05T11:01:05.795Z,8.68
2022-11-05T11:03:39.005Z,8.89
2022-11-05T11:06:18.947Z,8.84
2022-11-05T11:08:48.937Z,8.92
2022-11-05T11:11:29.027Z,8.92
2022-11-05T11:14:05.246Z,8.84
2022-11-05T11:16:41.723Z,8.91
2022-11-05T11:19:27.542Z,9.00
2022-11-05T11:22:19.254Z,9.15
2022-11-05T11:24:50.599Z,9.22
2022-11-05T11:27:24.525Z,9.31
2022-11-05T11:30:08.247Z,9.49
2022-11-05T11:32:40.994Z,9.50
2022-11-05T11:35:27.176Z,9.43
2022-11-05T11:37:58.741Z,9.19
2022-11-05T11:40:32.954Z,9.19
2022-11-05T11:43:07.267Z,8.83
2022-11-05T11:45:45.847Z,8.87
2022-11-05T11:48:19.237Z,8.76
2022-11-05T11:50:49.760Z,8.77
2022-11-05T11:53:28.224Z,8.71
2022-11-05T11:56:03.626Z,8.78
2022-11-05T11:58:44.296Z,8.92
2022-11-05T12:01:48.910Z,9.01
2022-11-05T12:04:35.484Z,9.01
2022-11-05T12:07:18.414Z,9.05
2022-11-05T12:10:04.599Z,9.07
2022-11-05T12:12:43.632Z,9.16
2022-11-05T12:15:28.949Z,9.27
2022-11-05T12:18:02.941Z,9.28
2022-11-05T12:20:52.713Z,9.15
2022-11-05T12:23:53.414Z,9.07
2022-11-05T12:26:32.610Z,9.08
2022-11-05T12:29:22.968Z,9.04
2022-11-05T12:32:03.075Z,8.82
2022-11-05T12:34:47.529Z,8.87
2022-11-05T12:37:24.092Z,8.93
2022-11-05T12:40:05.666Z,8.88
2022-11-05T12:42:46.797Z,8.93
2022-11-05T12:45:27.405Z,8.81
2022-11-05T12:48:10.377Z,8.90
2022-11-05T12:50:44.232Z,8.85
2022-11-05T12:53:41.888Z,8.89
2022-11-05T12:56:17.031Z,8.96
2022-11-05T12:58:49.429Z,8.98
2022-11-05T13:01:22.618Z,9.15
2022-11-05T13:03:57.432Z,9.10
2022-11-05T13:06:33.241Z,9.13
2022-11-05T13:09:07.499Z,8.88
2022-11-05T13:11:42.292Z,8.94
2022-11-05T13:14:16.137Z,8.90
2022-11-05T13:16:49.535Z,9.05
2022-11-05T13:19:23.304Z,9.15
2022-11-05T13:21:56.225Z,9.16
2022-11-05T13:24:30.906Z,9.21
2022-11-05T13:27:05.164Z,9.25
2022-11-05T13:29:40.644Z,9.17
2022-11-05T13:32:19.126Z,9.12
2022-11-05T13:34:49.422Z,9.14
2022-11-05T13:37:41.997Z,9.12
2022-11-05T13:40:17.400Z,9.02
2022-11-05T13:43:04.885Z,9.25
2022-11-05T13:46:06.935Z,9.35
2022-11-05T13:49:09.905Z,9.33
2022-11-05T13:51:55.172Z,9.35
2022-11-05T13:55:02.004Z,9.40
2022-11-05T13:57:54.218Z,9.43
2022-11-05T14:00:24.975Z,9.22
2022-11-05T14:02:57.964Z,9.35
2022-11-05T14:05:32.120Z,9.37
2022-11-05T14:08:02.440Z,9.39
2022-11-05T14:10:37.727Z,9.21
2022-11-05T14:13:21.556Z,9.04
2022-11-05T14:16:03.117Z,9.04
2022-11-05T14:18:45.205Z,9.04
2022-11-05T14:21:47.880Z,9.12
2022-11-05T14:24:44.786Z,9.22
2022-11-05T14:27:44.157Z,9.13
2022-11-05T14:30:47.073Z,9.17
2022-11-05T14:33:20.287Z,9.16
2022-11-05T14:35:50.181Z,9.13
2022-11-05T14:38:25.399Z,9.10
2022-11-05T14:41:03.649Z,9.07
2022-11-05T14:43:36.817Z,9.08
2022-11-05T14:46:08.612Z,9.04
2022-11-05T14:48:41.679Z,9.04
2022-11-05T14:51:28.413Z,8.92
2022-11-05T14:54:04.810Z,8.91
2022-11-05T14:56:45.353Z,9.00
2022-11-05T14:59:37.057Z,8.96
2022-11-05T15:02:13.868Z,8.94
2022-11-05T15:04:45.824Z,8.95
2022-11-05T15:07:37.750Z,8.98
2022-11-05T15:10:14.286Z,8.97
2022-11-05T15:12:47.448Z,8.91
2022-11-05T15:15:42.557Z,8.96
2022-11-05T15:18:18.883Z,8.83
2022-11-05T15:20:51.361Z,8.89
2022-11-05T15:23:23.787Z,8.87
2022-11-05T15:25:56.980Z,8.82
2022-11-05T15:28:36.443Z,8.82
2022-11-05T15:31:07.956Z,8.77
2022-11-05T15:33:38.366Z,8.81
2022-11-05T15:36:13.729Z,8.76
2022-11-05T15:39:02.021Z,8.71
2022-11-05T15:41:34.818Z,8.74
2022-11-05T15:44:03.810Z,8.70
2022-11-05T15:46:32.642Z,8.61
2022-11-05T15:49:07.001Z,8.62
2022-11-05T15:51:36.377Z,8.56
2022-11-05T15:54:29.003Z,8.50
2022-11-05T15:56:58.768Z,8.49
2022-11-05T15:59:30.411Z,8.46
2022-11-05T16:02:06.891Z,8.46
2022-11-05T16:04:38.131Z,8.41
2022-11-05T16:07:11.779Z,8.42
2022-11-05T16:09:44.167Z,8.46
2022-11-05T16:12:33.243Z,8.44
2022-11-05T16:15:05.974Z,8.45
2022-11-05T16:17:48.148Z,8.43
2022-11-05T16:20:27.846Z,8.44
2022-11-05T16:22:59.092Z,8.39
2022-11-05T16:25:42.957Z,8.42
2022-11-05T16:28:24.119Z,8.43
2022-11-05T16:30:58.014Z,8.44
2022-11-05T16:33:27.639Z,8.40
2022-11-05T16:35:58.976Z,8.38
2022-11-05T16:38:28.329Z,8.40
2022-11-05T16:40:57.133Z,8.39
2022-11-05T16:43:26.916Z,8.39
2022-11-05T16:45:58.142Z,8.40
2022-11-05T16:48:27.468Z,8.47
2022-11-05T16:50:58.509Z,8.43
2022-11-05T16:53:27.195Z,8.44
2022-11-05T16:55:55.738Z,8.47
2022-11-05T16:58:27.741Z,8.43
2022-11-05T17:01:02.370Z,8.45
2022-11-05T17:03:31.021Z,8.42
2022-11-05T17:06:02.168Z,8.43
2022-11-05T17:08:31.163Z,8.44
2022-11-05T17:10:59.907Z,8.47
2022-11-05T17:13:28.448Z,8.45
2022-11-05T17:15:56.928Z,8.44
2022-11-05T17:18:26.223Z,8.40
2022-11-05T17:20:57.616Z,8.40
2022-11-05T17:23:30.352Z,8.36
2022-11-05T17:26:03.772Z,8.33
2022-11-05T17:28:33.630Z,8.34
2022-11-05T17:31:03.180Z,8.33
2022-11-05T17:33:32.583Z,8.34
2022-11-05T17:36:02.053Z,8.35
2022-11-05T17:38:32.419Z,8.31
2022-11-05T17:41:01.865Z,8.33
2022-11-05T17:43:30.144Z,8.29
2022-11-05T17:46:04.086Z,8.26
2022-11-05T17:48:33.324Z,8.24
2022-11-05T17:51:01.917Z,8.24
2022-11-05T17:53:32.047Z,8.21
2022-11-05T17:56:00.690Z,8.17
2022-11-05T17:58:29.210Z,8.16
2022-11-05T18:00:58.628Z,8.12
2022-11-05T18:03:27.366Z,8.05
2022-11-05T18:05:55.768Z,8.14
2022-11-05T18:08:24.069Z,8.17
2022-11-05T18:10:55.439Z,8.07
2022-11-05T18:13:24.177Z,8.07
2022-11-05T18:15:54.137Z,8.06
2022-11-05T18:18:23.282Z,8.03
2022-11-05T18:20:51.997Z,8.00
2022-11-05T18:23:21.484Z,8.02
2022-11-05T18:25:49.946Z,8.02
2022-11-05T18:28:20.050Z,7.90
2022-11-05T18:30:48.704Z,7.94
2022-11-05T18:33:19.020Z,7.89
2022-11-05T18:35:47.934Z,7.91
2022-11-05T18:38:16.643Z,7.81
2022-11-05T18:40:45.985Z,7.89
2022-11-05T18:43:14.992Z,7.92
2022-11-05T18:45:44.895Z,7.89
2022-11-05T18:48:13.799Z,7.91
2022-11-05T18:50:42.427Z,7.87
2022-11-05T18:53:10.956Z,7.83
2022-11-05T18:55:40.615Z,7.94
2022-11-05T18:58:09.082Z,7.79
2022-11-05T19:00:40.617Z,7.73
2022-11-05T19:03:11.022Z,7.65
2022-11-05T19:05:39.348Z,7.64
2022-11-05T19:08:07.850Z,7.68
2022-11-05T19:10:37.000Z,7.54
2022-11-05T19:13:05.410Z,7.41
2022-11-05T19:15:35.899Z,7.47
2022-11-05T19:18:04.329Z,7.38
2022-11-05T19:20:37.814Z,7.27
2022-11-05T19:23:06.994Z,7.08
2022-11-05T19:25:38.150Z,7.10
2022-11-05T19:28:06.610Z,7.07
2022-11-05T19:30:35.069Z,6.98
2022-11-05T19:33:03.422Z,6.98
2022-11-05T19:35:38.339Z,6.97
2022-11-05T19:38:09.621Z,6.91
2022-11-05T19:40:38.872Z,6.95
2022-11-05T19:43:08.754Z,6.99
2022-11-05T19:45:45.061Z,6.93
2022-11-05T19:48:19.081Z,6.81
2022-11-05T19:50:50.434Z,6.80
2022-11-05T19:53:19.075Z,6.77
2022-11-05T19:55:47.701Z,6.65
2022-11-05T19:58:16.324Z,6.56
2022-11-05T20:00:45.377Z,6.47
2022-11-05T20:03:13.736Z,6.38
2022-11-05T20:05:42.339Z,6.26
2022-11-05T20:08:13.351Z,6.23
2022-11-05T20:10:42.293Z,6.23
2022-11-05T20:13:13.225Z,6.19
2022-11-05T20:15:46.810Z,6.13
2022-11-05T20:18:17.456Z,6.14
2022-11-05T20:20:46.414Z,6.15
2022-11-05T20:23:16.580Z,6.16
2022-11-05T20:25:45.146Z,6.18
2022-11-05T20:28:13.844Z,6.25
2022-11-05T20:30:42.589Z,6.41
2022-11-05T20:33:11.206Z,6.32
2022-11-05T20:35:40.969Z,6.41
2022-11-05T20:38:09.848Z,6.50
2022-11-05T20:40:42.378Z,6.57
2022-11-05T20:43:10.932Z,6.57
2022-11-05T20:45:40.331Z,6.49
2022-11-05T20:48:09.427Z,6.59
2022-11-05T20:50:41.842Z,6.58
2022-11-05T20:53:10.616Z,6.65
2022-11-05T20:55:46.036Z,6.65
2022-11-05T20:58:16.006Z,6.63
2022-11-05T21:00:51.417Z,6.59
2022-11-05T21:03:21.565Z,6.58
2022-11-05T21:05:54.720Z,6.63
2022-11-05T21:08:24.165Z,6.62
2022-11-05T21:10:54.147Z,6.56
2022-11-05T21:13:23.579Z,6.54
2022-11-05T21:15:54.790Z,6.59
2022-11-05T21:18:24.853Z,6.65
2022-11-05T21:20:54.551Z,6.59
2022-11-05T21:23:23.036Z,6.70
2022-11-05T21:25:51.712Z,6.75
2022-11-05T21:28:21.518Z,6.63
2022-11-05T21:30:49.908Z,6.63
2022-11-05T21:33:19.707Z,6.73
2022-11-05T21:35:49.807Z,6.74
2022-11-05T21:38:19.469Z,6.80
2022-11-05T21:40:48.796Z,6.79
2022-11-05T21:43:17.466Z,6.71
2022-11-05T21:45:47.723Z,6.72
2022-11-05T21:48:16.529Z,6.78
2022-11-05T21:51:02.303Z,6.58
2022-11-05T21:53:48.763Z,6.57
2022-11-05T21:56:37.321Z,6.47
2022-11-05T21:59:23.346Z,6.37
2022-11-05T22:02:01.713Z,6.29
2022-11-05T22:04:31.233Z,6.22
2022-11-05T22:06:59.672Z,6.21
2022-11-05T22:09:28.794Z,6.09
2022-11-05T22:11:57.774Z,5.98
2022-11-05T22:14:26.575Z,5.92
2022-11-05T22:16:57.445Z,5.84
2022-11-05T22:19:26.539Z,5.75
2022-11-05T22:21:54.789Z,5.68
2022-11-05T22:24:23.728Z,5.60
2022-11-05T22:26:52.605Z,5.57
2022-11-05T22:29:21.612Z,5.58
2022-11-05T22:31:50.183Z,5.49
2022-11-05T22:34:20.727Z,5.46
2022-11-05T22:36:49.206Z,5.51
2022-11-05T22:39:17.608Z,5.49
2022-11-05T22:41:46.434Z,5.40
2022-11-05T22:44:16.708Z,5.35
2022-11-05T22:46:45.379Z,5.39
2022-11-05T22:49:14.317Z,5.32
2022-11-05T22:51:44.600Z,5.41
2022-11-05T22:54:13.214Z,5.33
2022-11-05T22:56:43.666Z,5.39
2022-11-05T22:59:14.600Z,5.32
2022-11-05T23:01:44.112Z,5.26
2022-11-05T23:04:13.735Z,5.33
2022-11-05T23:07:01.325Z,5.29
2022-11-05T23:09:49.460Z,5.17
2022-11-05T23:12:23.985Z,5.13
2022-11-05T23:14:52.562Z,5.12
2022-11-05T23:17:38.509Z,5.08
2022-11-05T23:20:26.151Z,5.02
2022-11-05T23:23:13.103Z,5.03
2022-11-05T23:25:41.852Z,5.18
2022-11-05T23:28:12.236Z,5.06
2022-11-05T23:31:05.675Z,5.00
2022-11-05T23:33:34.744Z,4.91
2022-11-05T23:36:21.038Z,4.81
2022-11-05T23:38:50.980Z,4.84
2022-11-05T23:41:36.636Z,4.68
2022-11-05T23:44:21.600Z,4.77
2022-11-05T23:47:07.731Z,4.77
2022-11-05T23:49:37.065Z,4.76
2022-11-05T23:52:06.104Z,4.69
2022-11-05T23:54:36.004Z,4.61
2022-11-05T23:57:05.127Z,4.63
2022-11-05T23:59:36.159Z,4.60
